Time;durP1;ratioP1;P1;durP2;ratioP2;P2;SDS_P1;SDS_P2;PMS_P1;PMS_P2;Temp;Humidity;BMP_temperature;BMP_pressure;BME280_temperature;BME280_humidity;BME280_pressure;Samples;Min_cycle;Max_cycle;Signal;HPM_P1;HPM_P2
2022/06/18 00:01:40;;;;;;;;;;;;;;;-140.72;100.00;51976.94;6282996;22;20010;-71
2022/06/18 00:04:09;;;;;;;;;;;;;;;-140.72;100.00;51968.81;6281833;22;19935;-72
2022/06/18 00:06:37;;;;;;;;;;;;;;;-140.72;100.00;52011.44;6254451;22;20061;-71
2022/06/18 00:09:03;;;;;;;;;;;;;;;-140.72;100.00;52025.63;6282136;22;19915;-71
2022/06/18 00:14:12;;;;;;;;;;;;;;;-140.72;100.00;51997.22;6281010;22;19919;-71
2022/06/18 00:16:38;;;;;;;;;;;;;;;-140.72;100.00;52009.41;6253991;22;19993;-71
2022/06/18 00:19:03;;;;;;;;;;;;;;;-140.72;100.00;52025.63;6281326;22;19911;-70
2022/06/18 00:21:36;;;;;;;;;;;;;;;-140.72;100.00;52013.47;6281320;22;20256;-70
2022/06/18 00:24:06;;;;;;;;;;;;;;;-140.72;100.00;52023.59;6253834;22;20402;-71
2022/06/18 00:26:31;;;;;;;;;;;;;;;-140.72;100.00;52003.31;6254449;22;19915;-71
2022/06/18 00:28:56;;;;;;;;;;;;;;;-140.72;100.00;52025.63;6281092;22;19954;-70
2022/06/18 00:31:21;;;;;;;;;;;;;;;-140.72;100.00;52005.34;6253226;22;20234;-70
2022/06/18 00:33:47;;;;;;;;;;;;;;;-140.72;100.00;52029.69;6252912;22;20329;-70
2022/06/18 00:36:14;;;;;;;;;;;;;;;-140.72;100.00;52023.59;6253553;22;19930;-70
2022/06/18 00:38:41;;;;;;;;;;;;;;;-140.72;100.00;52027.66;6281004;22;20432;-70
2022/06/18 00:41:07;;;;;;;;;;;;;;;-140.72;100.00;52011.44;6280442;22;19911;-71
2022/06/18 00:43:36;;;;;;;;;;;;;;;-140.72;100.00;52021.56;6281165;22;19953;-72
2022/06/18 00:46:18;;;;;;;;;;;;;;;-140.72;100.00;52072.31;6254585;22;19982;-72
2022/06/18 00:48:47;;;;;;;;;;;;;;;-140.72;100.00;51999.25;6282009;22;19911;-72
2022/06/18 00:51:22;;;;;;;;;;;;;;;-140.72;100.00;52009.41;6294700;22;19980;-71
2022/06/18 00:53:49;;;;;;;;;;;;;;;-140.72;100.00;52011.44;6284513;22;19926;-72
2022/06/18 00:56:21;;;;;;;;;;;;;;;-140.72;100.00;52037.81;6286328;22;20040;-71
2022/06/18 00:58:46;;;;;;;;;;;;;;;-140.72;100.00;52021.56;6281006;22;20312;-71
2022/06/18 01:01:14;;;;;;;;;;;;;;;-140.72;100.00;52035.78;6280383;22;19957;-71
2022/06/18 01:03:40;;;;;;;;;;;;;;;-140.72;100.00;52033.75;6280771;22;19942;-72
2022/06/18 01:06:16;;;;;;;;;;;;;;;-140.72;100.00;51989.13;6280927;22;19918;-72
2022/06/18 01:08:44;;;;;;;;;;;;;;;-140.72;100.00;52054.03;6281142;22;19911;-71
2022/06/18 01:11:19;;;;;;;;;;;;;;;-140.72;100.00;52007.38;6280509;22;20244;-71
2022/06/18 01:13:44;;;;;;;;;;;;;;;-140.72;100.00;52037.81;6280789;22;19921;-71
2022/06/18 01:16:10;;;;;;;;;;;;;;;-140.72;100.00;52054.03;6280524;22;19950;-72
2022/06/18 01:18:36;;;;;;;;;;;;;;;-140.72;100.00;52001.28;6281019;22;20300;-71
2022/06/18 01:21:07;;;;;;;;;;;;;;;-140.72;100.00;52047.97;6280715;22;19918;-72
2022/06/18 01:23:50;;;;;;;;;;;;;;;-140.72;100.00;52017.53;6281517;22;20292;-71
2022/06/18 01:26:15;;;;;;;;;;;;;;;-140.72;100.00;52019.56;6280428;22;19915;-72
2022/06/18 01:28:41;;;;;;;;;;;;;;;-140.72;100.00;52035.78;6280697;22;19911;-72
2022/06/18 01:31:07;;;;;;;;;;;;;;;-140.72;100.00;52025.63;6280364;22;20014;-72
2022/06/18 01:33:33;;;;;;;;;;;;;;;-140.72;100.00;52037.81;6280449;22;20325;-71
2022/06/18 01:36:01;;;;;;;;;;;;;;;-140.72;100.00;52058.09;6281050;22;19917;-72
2022/06/18 01:38:26;;;;;;;;;;;;;;;-140.72;100.00;52031.72;6280775;22;20248;-72
2022/06/18 01:40:55;;;;;;;;;;;;;;;-140.72;100.00;52029.69;6281051;22;19930;-72
2022/06/18 01:43:23;;;;;;;;;;;;;;;-140.72;100.00;52045.94;6281092;22;19911;-71
2022/06/18 01:45:52;;;;;;;;;;;;;;;-140.72;100.00;52045.94;6280462;22;20013;-71
2022/06/18 01:48:21;;;;;;;;;;;;;;;-140.72;100.00;52062.16;6281935;22;19918;-72
2022/06/18 01:50:52;;;;;;;;;;;;;;;-140.72;100.00;52066.22;6280750;22;20010;-71
2022/06/18 01:53:21;;;;;;;;;;;;;;;-140.72;100.00;52015.50;6280780;22;19961;-71
2022/06/18 01:55:50;;;;;;;;;;;;;;;-140.72;100.00;52054.03;6253560;22;19938;-71
2022/06/18 01:58:19;;;;;;;;;;;;;;;-140.72;100.00;52054.03;6253265;22;19911;-71
2022/06/18 02:00:47;;;;;;;;;;;;;;;-140.72;100.00;52031.72;6280502;22;19915;-72
2022/06/18 02:03:12;;;;;;;;;;;;;;;-140.72;100.00;52003.31;6281062;22;20305;-72
2022/06/18 02:05:40;;;;;;;;;;;;;;;-140.72;100.00;52064.19;6281232;22;19912;-72
2022/06/18 02:08:08;;;;;;;;;;;;;;;-140.72;100.00;52066.22;6281462;22;19966;-72
2022/06/18 02:10:39;;;;;;;;;;;;;;;-140.72;100.00;52037.81;6281195;22;20273;-71
2022/06/18 02:13:04;;;;;;;;;;;;;;;-140.72;100.00;52066.22;6280925;22;19915;-72
2022/06/18 02:15:33;;;;;;;;;;;;;;;-140.72;100.00;52070.28;6280290;22;20241;-72
2022/06/18 02:18:01;;;;;;;;;;;;;;;-140.72;100.00;52029.69;6280881;22;20226;-72
2022/06/18 02:20:28;;;;;;;;;;;;;;;-140.72;100.00;52082.44;6279767;22;19911;-72
2022/06/18 02:22:55;;;;;;;;;;;;;;;-140.72;100.00;52060.13;6280294;22;20370;-72
2022/06/18 02:25:25;;;;;;;;;;;;;;;-140.72;100.00;52078.38;6280738;22;19911;-73
2022/06/18 02:27:54;;;;;;;;;;;;;;;-140.72;100.00;52078.38;6280500;22;19911;-71
2022/06/18 02:30:21;;;;;;;;;;;;;;;-140.72;100.00;52070.28;6280720;22;19915;-72
2022/06/18 02:33:06;;;;;;;;;;;;;;;-140.72;100.00;52066.22;6246707;22;19935;-84
2022/06/18 02:35:44;;;;;;;;;;;;;;;-140.72;100.00;52094.63;6243783;23;19920;-83
2022/06/18 02:38:35;;;;;;;;;;;;;;;-140.72;100.00;52054.03;6245210;23;19912;-83
2022/06/18 02:41:00;;;;;;;;;;;;;;;-140.72;100.00;52074.34;6240346;23;19911;-83
2022/06/18 02:43:26;;;;;;;;;;;;;;;-140.72;100.00;52082.44;6245083;23;20101;-84
2022/06/18 02:45:53;;;;;;;;;;;;;;;-140.72;100.00;52070.28;6243795;23;20426;-83
2022/06/18 02:48:21;;;;;;;;;;;;;;;-140.72;100.00;52052.00;6244268;23;19916;-83
2022/06/18 02:50:49;;;;;;;;;;;;;;;-140.72;100.00;52102.75;6242377;23;19973;-83
2022/06/18 02:53:14;;;;;;;;;;;;;;;-140.72;100.00;52086.50;6245214;23;19912;-83
2022/06/18 02:55:47;;;;;;;;;;;;;;;-140.72;100.00;52088.53;6241510;23;19919;-83
2022/06/18 02:58:23;;;;;;;;;;;;;;;-140.72;100.00;52078.38;6274089;22;20399;-83
2022/06/18 03:00:53;;;;;;;;;;;;;;;-140.72;100.00;52108.81;6274999;22;19937;-83
2022/06/18 03:03:19;;;;;;;;;;;;;;;-140.72;100.00;52106.78;6275257;22;19915;-83
2022/06/18 03:05:45;;;;;;;;;;;;;;;-140.72;100.00;52131.16;6273172;22;19911;-83
2022/06/18 03:08:10;;;;;;;;;;;;;;;-140.72;100.00;52088.53;6274410;22;20400;-83
2022/06/18 03:13:19;;;;;;;;;;;;;;;-140.72;100.00;52137.22;6274240;22;20010;-83
2022/06/18 03:15:46;;;;;;;;;;;;;;;-140.72;100.00;52112.88;6272237;22;20604;-83
2022/06/18 03:18:11;;;;;;;;;;;;;;;-140.72;100.00;52098.69;6275376;22;19918;-84
2022/06/18 03:20:49;;;;;;;;;;;;;;;-140.72;100.00;52088.53;6274013;22;20177;-83
2022/06/18 03:23:16;;;;;;;;;;;;;;;-140.72;100.00;52100.72;6275746;22;19911;-83
2022/06/18 03:25:42;;;;;;;;;;;;;;;-140.72;100.00;52098.69;6273406;22;20036;-83
2022/06/18 03:28:07;;;;;;;;;;;;;;;-140.72;100.00;52110.84;6277421;22;19912;-84
2022/06/18 03:30:32;;;;;;;;;;;;;;;-140.72;100.00;52080.41;6273621;22;20319;-82
2022/06/18 03:32:58;;;;;;;;;;;;;;;-140.72;100.00;52110.84;6274349;22;19957;-82
2022/06/18 03:35:23;;;;;;;;;;;;;;;-140.72;100.00;52106.78;6276550;22;19918;-83
2022/06/18 03:37:48;;;;;;;;;;;;;;;-140.72;100.00;52139.25;6276052;22;19907;-83
2022/06/18 03:40:13;;;;;;;;;;;;;;;-140.72;100.00;52116.94;6274592;22;19943;-83
2022/06/18 03:42:38;;;;;;;;;;;;;;;-140.72;100.00;52131.16;6274915;22;19911;-84
2022/06/18 03:45:04;;;;;;;;;;;;;;;-140.72;100.00;52108.81;6274866;22;19950;-82
2022/06/18 03:47:29;;;;;;;;;;;;;;;-140.72;100.00;52149.41;6273832;22;19962;-83
2022/06/18 03:49:54;;;;;;;;;;;;;;;-140.72;100.00;52131.16;6276970;22;19911;-83
2022/06/18 03:52:20;;;;;;;;;;;;;;;-140.72;100.00;52127.09;6275281;22;19912;-83
2022/06/18 03:54:45;;;;;;;;;;;;;;;-140.72;100.00;52139.25;6275310;22;19992;-83
2022/06/18 03:57:16;;;;;;;;;;;;;;;-140.72;100.00;52106.78;6274956;22;19911;-83
2022/06/18 03:59:43;;;;;;;;;;;;;;;-140.72;100.00;52102.75;6274398;22;19915;-82
2022/06/18 04:02:09;;;;;;;;;;;;;;;-140.72;100.00;52123.03;6275230;22;19911;-82
2022/06/18 04:04:34;;;;;;;;;;;;;;;-140.72;100.00;52131.16;6275318;22;19964;-82
2022/06/18 04:07:00;;;;;;;;;;;;;;;-140.72;100.00;52179.84;6273949;22;19911;-82
2022/06/18 04:09:26;;;;;;;;;;;;;;;-140.72;100.00;52110.84;6274596;22;19923;-82
2022/06/18 04:11:51;;;;;;;;;;;;;;;-140.72;100.00;52145.34;6277057;22;19990;-82
2022/06/18 04:14:16;;;;;;;;;;;;;;;-140.72;100.00;52135.19;6274590;22;19957;-82
2022/06/18 04:16:44;;;;;;;;;;;;;;;-140.72;100.00;52118.97;6276194;22;19911;-82
2022/06/18 04:19:11;;;;;;;;;;;;;;;-140.72;100.00;52165.63;6275260;22;19919;-81
2022/06/18 04:21:37;;;;;;;;;;;;;;;-140.72;100.00;52114.91;6275008;22;20402;-83
2022/06/18 04:24:05;;;;;;;;;;;;;;;-140.72;100.00;52141.28;6274622;22;19914;-82
2022/06/18 04:26:45;;;;;;;;;;;;;;;-140.72;100.00;52102.75;6274240;22;19911;-83
2022/06/18 04:32:13;;;;;;;;;;;;;;;-140.72;100.00;52165.63;6274061;22;20362;-82
2022/06/18 04:34:57;;;;;;;;;;;;;;;-140.72;100.00;52100.72;6273759;22;19915;-83
2022/06/18 04:37:26;;;;;;;;;;;;;;;-140.72;100.00;52094.63;6274381;22;19915;-83
2022/06/18 04:39:51;;;;;;;;;;;;;;;-140.72;100.00;52112.88;6275616;22;19911;-83
2022/06/18 04:42:23;;;;;;;;;;;;;;;-140.72;100.00;52143.31;6274097;22;19963;-82
2022/06/18 04:44:55;;;;;;;;;;;;;;;-140.72;100.00;52139.25;6274473;22;19998;-83
2022/06/18 04:47:26;;;;;;;;;;;;;;;-140.72;100.00;52127.09;6274579;22;19915;-83
2022/06/18 04:49:54;;;;;;;;;;;;;;;-140.72;100.00;52121.00;6275214;22;19934;-83
2022/06/18 04:52:45;;;;;;;;;;;;;;;-140.72;100.00;52098.69;6275794;22;19915;-83
2022/06/18 04:55:19;;;;;;;;;;;;;;;-140.72;100.00;52118.97;6228185;22;19911;-83
2022/06/18 04:57:45;;;;;;;;;;;;;;;-140.72;100.00;52094.63;6275348;22;19986;-83
2022/06/18 05:00:10;;;;;;;;;;;;;;;-140.72;100.00;52135.19;6276820;22;19911;-82
2022/06/18 05:02:36;;;;;;;;;;;;;;;-140.72;100.00;52151.44;6274939;22;19911;-82
2022/06/18 05:05:07;;;;;;;;;;;;;;;-140.72;100.00;52127.09;6275672;22;19918;-83
2022/06/18 05:07:42;;;;;;;;;;;;;;;-140.72;100.00;52143.31;6276173;22;20361;-83
2022/06/18 05:13:12;;;;;;;;;;;;;;;-140.72;100.00;52114.91;6243947;22;20288;-82
2022/06/18 05:16:03;;;;;;;;;;;;;;;-140.72;100.00;52141.28;6279357;22;19923;-87
2022/06/18 05:18:30;;;;;;;;;;;;;;;-140.72;100.00;52121.00;6280608;22;19964;-82
2022/06/18 05:20:59;;;;;;;;;;;;;;;-140.72;100.00;52145.34;6288378;22;19919;-86
2022/06/18 05:23:24;;;;;;;;;;;;;;;-140.72;100.00;52129.13;6300495;22;19915;-85
2022/06/18 05:26:00;;;;;;;;;;;;;;;-140.72;100.00;52143.31;6300274;22;19911;-86
2022/06/18 05:28:29;;;;;;;;;;;;;;;-140.72;100.00;52129.13;6299315;22;19903;-85
2022/06/18 05:30:57;;;;;;;;;;;;;;;-140.72;100.00;52114.91;6290287;22;19916;-81
2022/06/18 05:33:22;;;;;;;;;;;;;;;-140.72;100.00;52133.16;6289018;22;19915;-79
2022/06/18 05:35:49;;;;;;;;;;;;;;;-140.72;100.00;52127.09;6294077;22;19927;-89
2022/06/18 05:38:32;;;;;;;;;;;;;;;-140.72;100.00;52090.56;6297939;22;19985;-86
2022/06/18 05:40:58;;;;;;;;;;;;;;;-140.72;100.00;52110.84;6282001;22;19911;-90
2022/06/18 05:43:41;;;;;;;;;;;;;;;-140.72;100.00;52080.41;6278602;22;19922;-87
2022/06/18 05:46:53;;;;;;;;;;;;;;;;;;;;;
2022/06/18 05:49:18;;;;;;;;;;;;;;;-140.72;100.00;52114.91;6276018;22;20003;-82
2022/06/18 05:51:44;;;;;;;;;;;;;;;-140.72;100.00;52121.00;6280139;22;19911;-81
2022/06/18 05:54:09;;;;;;;;;;;;;;;-140.72;100.00;52090.56;6278576;22;19922;-82
2022/06/18 05:56:34;;;;;;;;;;;;;;;-140.72;100.00;52090.56;6276200;22;20370;-82
2022/06/18 05:58:59;;;;;;;;;;;;;;;-140.72;100.00;52112.88;6275929;22;19911;-82
2022/06/18 06:01:33;;;;;;;;;;;;;;;-140.72;100.00;52056.06;6275387;22;20319;-82
2022/06/18 06:03:58;;;;;;;;;;;;;;;-140.72;100.00;52108.81;6275696;22;19937;-82
2022/06/18 06:06:24;;;;;;;;;;;;;;;-140.72;100.00;52082.44;6277589;22;19911;-82
2022/06/18 06:08:55;;;;;;;;;;;;;;;-140.72;100.00;52094.63;6275555;22;19930;-83
2022/06/18 06:11:29;;;;;;;;;;;;;;;-140.72;100.00;52110.84;6283886;22;19911;-83
2022/06/18 06:13:55;;;;;;;;;;;;;;;-140.72;100.00;52127.09;6277896;22;19926;-85
2022/06/18 06:16:20;;;;;;;;;;;;;;;-140.72;100.00;52123.03;6276508;22;19941;-86
2022/06/18 06:18:46;;;;;;;;;;;;;;;-140.72;100.00;52123.03;6273985;22;20265;-86
2022/06/18 06:21:14;;;;;;;;;;;;;;;-140.72;100.00;52108.81;6275314;22;19947;-83
2022/06/18 06:23:39;;;;;;;;;;;;;;;-140.72;100.00;52114.91;6274244;22;19983;-83
2022/06/18 06:26:16;;;;;;;;;;;;;;;-140.72;100.00;52102.75;6275312;22;19934;-83
2022/06/18 06:28:43;;;;;;;;;;;;;;;-140.72;100.00;52078.38;6275913;22;19938;-83
2022/06/18 06:31:08;;;;;;;;;;;;;;;-140.72;100.00;52104.75;6275129;22;20319;-83
2022/06/18 06:33:34;;;;;;;;;;;;;;;-140.72;100.00;52078.38;6275108;22;19989;-83
2022/06/18 06:35:59;;;;;;;;;;;;;;;-140.72;100.00;52094.63;6276699;22;19911;-87
2022/06/18 06:38:33;;;;;;;;;;;;;;;-140.72;100.00;52045.94;6276157;22;19934;-82
2022/06/18 06:40:59;;;;;;;;;;;;;;;-140.72;100.00;52070.28;6278296;22;20026;-85
2022/06/18 06:43:24;;;;;;;;;;;;;;;-140.72;100.00;52106.78;6275825;22;19939;-84
2022/06/18 06:45:49;;;;;;;;;;;;;;;-140.72;100.00;52070.28;6277967;22;19934;-85
2022/06/18 06:48:17;;;;;;;;;;;;;;;-140.72;100.00;52072.31;6277896;22;19915;-85
2022/06/18 06:50:44;;;;;;;;;;;;;;;-140.72;100.00;52027.66;6274263;22;19917;-85
2022/06/18 06:53:22;;;;;;;;;;;;;;;-140.72;100.00;52070.28;6274894;22;20060;-88
2022/06/18 06:58:51;;;;;;;;;;;;;;;-140.72;100.00;52076.34;6277861;22;19918;-86
2022/06/18 07:01:16;;;;;;;;;;;;;;;-140.72;100.00;52054.03;6272235;22;19983;-86
2022/06/18 07:03:42;;;;;;;;;;;;;;;-140.72;100.00;52031.72;6274106;22;19918;-88
2022/06/18 07:06:07;;;;;;;;;;;;;;;-140.72;100.00;52049.97;6273176;22;19907;-87
2022/06/18 07:08:32;;;;;;;;;;;;;;;-140.72;100.00;52070.28;6274024;22;19969;-85
2022/06/18 07:10:58;;;;;;;;;;;;;;;-140.72;100.00;52043.91;6273214;22;19925;-87
2022/06/18 07:13:23;;;;;;;;;;;;;;;-140.72;100.00;52058.09;6274581;22;19917;-88
2022/06/18 07:15:48;;;;;;;;;;;;;;;-140.72;100.00;52021.56;6269664;22;19912;-86
2022/06/18 07:18:16;;;;;;;;;;;;;;;-140.72;100.00;52027.66;6272821;22;20242;-87
2022/06/18 07:20:42;;;;;;;;;;;;;;;-140.72;100.00;51985.06;6272372;22;19994;-88
2022/06/18 07:23:07;;;;;;;;;;;;;;;-140.72;100.00;52017.53;6272854;22;20351;-85
2022/06/18 07:25:36;;;;;;;;;;;;;;;-140.72;100.00;52029.69;6271479;22;19921;-82
2022/06/18 07:28:01;;;;;;;;;;;;;;;-140.72;100.00;52023.59;6271763;22;20266;-83
2022/06/18 07:30:26;;;;;;;;;;;;;;;-140.72;100.00;52045.94;6273297;22;19957;-82
2022/06/18 07:32:52;;;;;;;;;;;;;;;-140.72;100.00;52003.31;6267535;22;19915;-83
2022/06/18 07:35:22;;;;;;;;;;;;;;;-140.72;100.00;52001.28;6274738;22;19962;-88
2022/06/18 07:37:47;;;;;;;;;;;;;;;-140.72;100.00;51999.25;6273298;22;19919;-83
2022/06/18 07:40:13;;;;;;;;;;;;;;;-140.72;100.00;52011.44;6274488;22;20240;-84
2022/06/18 07:42:38;;;;;;;;;;;;;;;-140.72;100.00;51993.19;6273767;22;19919;-84
2022/06/18 07:45:05;;;;;;;;;;;;;;;-140.72;100.00;52017.53;6272194;22;19964;-84
2022/06/18 07:47:30;;;;;;;;;;;;;;;-140.72;100.00;52041.88;6272509;22;19999;-84
2022/06/18 07:49:56;;;;;;;;;;;;;;;-140.72;100.00;52001.28;6272544;22;19942;-84
2022/06/18 07:52:21;;;;;;;;;;;;;;;-140.72;100.00;51981.00;6273850;22;19919;-85
2022/06/18 07:54:46;;;;;;;;;;;;;;;-140.72;100.00;51999.25;6273681;22;19911;-85
2022/06/18 07:57:11;;;;;;;;;;;;;;;-140.72;100.00;51993.19;6273545;22;20291;-84
2022/06/18 07:59:38;;;;;;;;;;;;;;;-140.72;100.00;51989.13;6274369;22;19916;-84
2022/06/18 08:02:03;;;;;;;;;;;;;;;-140.72;100.00;51974.91;6274553;22;19986;-84
2022/06/18 08:04:29;;;;;;;;;;;;;;;-140.72;100.00;51981.00;6276309;22;19911;-85
2022/06/18 08:06:54;;;;;;;;;;;;;;;-140.72;100.00;51964.78;6276720;22;19986;-84
2022/06/18 08:09:19;;;;;;;;;;;;;;;-140.72;100.00;51983.03;6277959;22;19911;-84
2022/06/18 08:11:47;;;;;;;;;;;;;;;-140.72;100.00;51950.56;6275161;22;19937;-84
2022/06/18 08:14:12;;;;;;;;;;;;;;;-140.72;100.00;51934.34;6274270;22;19986;-84
2022/06/18 08:16:38;;;;;;;;;;;;;;;-140.72;100.00;51928.25;6275557;22;19923;-84
2022/06/18 08:19:03;;;;;;;;;;;;;;;-140.72;100.00;51964.78;6275355;22;19911;-85
2022/06/18 08:21:34;;;;;;;;;;;;;;;-140.72;100.00;51928.25;6275162;22;19915;-85
2022/06/18 08:24:01;;;;;;;;;;;;;;;-140.72;100.00;51916.06;6275315;22;19922;-84
2022/06/18 08:26:29;;;;;;;;;;;;;;;-140.72;100.00;51920.13;6278008;22;20343;-85
2022/06/18 08:28:55;;;;;;;;;;;;;;;-140.72;100.00;51857.25;6277928;22;19922;-84
2022/06/18 08:31:26;;;;;;;;;;;;;;;-140.72;100.00;51916.06;6277451;22;20384;-85
2022/06/18 08:33:52;;;;;;;;;;;;;;;-140.72;100.00;51893.75;6260918;22;20009;-85
2022/06/18 08:36:18;;;;;;;;;;;;;;;-140.72;100.00;51881.59;6269602;22;20103;-84
2022/06/18 08:38:45;;;;;;;;;;;;;;;-140.72;100.00;51895.78;6275786;22;20243;-85
2022/06/18 08:41:29;;;;;;;;;;;;;;;-140.72;100.00;51863.31;6273929;22;20324;-84
2022/06/18 08:44:09;;;;;;;;;;;;;;;-140.72;100.00;51869.41;6275072;22;19991;-85
2022/06/18 08:46:37;;;;;;;;;;;;;;;-140.72;100.00;51828.84;6276991;22;19912;-83
2022/06/18 08:49:02;;;;;;;;;;;;;;;-140.72;100.00;51849.13;6272889;22;19919;-83
2022/06/18 08:51:31;;;;;;;;;;;;;;;-140.72;100.00;51865.34;6275159;22;19915;-84
2022/06/18 08:53:56;;;;;;;;;;;;;;;-140.72;100.00;51851.16;6274916;22;19911;-84
2022/06/18 08:56:28;;;;;;;;;;;;;;;-140.72;100.00;51857.25;6273806;22;19922;-84
2022/06/18 08:59:15;;;;;;;;;;;;;;;-140.72;100.00;51851.16;6247090;22;19953;-85
2022/06/18 09:01:45;;;;;;;;;;;;;;;-140.72;100.00;51810.56;6274844;22;19911;-84
2022/06/18 09:04:17;;;;;;;;;;;;;;;-140.72;100.00;51810.56;6271720;22;19993;-84
2022/06/18 09:07:08;;;;;;;;;;;;;;;-140.72;100.00;51814.63;6276517;22;20169;-84
2022/06/18 09:09:33;;;;;;;;;;;;;;;-140.72;100.00;51810.56;6274062;22;19911;-84
2022/06/18 09:12:01;;;;;;;;;;;;;;;-140.72;100.00;51776.09;6273318;22;20041;-84
2022/06/18 09:14:32;;;;;;;;;;;;;;;-140.72;100.00;51753.78;6274158;22;19945;-84
2022/06/18 09:17:12;;;;;;;;;;;;;;;-140.72;100.00;51759.84;6291547;22;19941;-69
2022/06/18 09:19:39;;;;;;;;;;;;;;;-140.72;100.00;51770.00;6297231;22;20252;-69
2022/06/18 09:22:08;;;;;;;;;;;;;;;-140.72;100.00;51717.25;6297447;22;19911;-69
2022/06/18 09:24:36;;;;;;;;;;;;;;;-140.72;100.00;51725.38;6298206;22;19911;-69
2022/06/18 09:27:06;;;;;;;;;;;;;;;-140.72;100.00;51719.28;6296763;22;20398;-68
2022/06/18 09:29:34;;;;;;;;;;;;;;;-140.72;100.00;51705.06;6298259;22;19915;-69
2022/06/18 09:32:02;;;;;;;;;;;;;;;-140.72;100.00;51731.44;6296477;22;19934;-69
2022/06/18 09:34:31;;;;;;;;;;;;;;;-140.72;100.00;51694.94;6295389;22;19955;-68
2022/06/18 09:36:58;;;;;;;;;;;;;;;-140.72;100.00;51694.94;6295343;22;19911;-69
2022/06/18 09:39:26;;;;;;;;;;;;;;;-140.72;100.00;51701.03;6295478;22;19911;-71
2022/06/18 09:42:00;;;;;;;;;;;;;;;-140.72;100.00;51636.09;6297562;22;19922;-69
2022/06/18 09:44:25;;;;;;;;;;;;;;;-140.72;100.00;51692.91;6271241;22;19959;-67
2022/06/18 09:47:00;;;;;;;;;;;;;;;-140.72;100.00;51676.69;6297769;22;19922;-70
2022/06/18 09:49:25;;;;;;;;;;;;;;;-140.72;100.00;51696.97;6299189;22;19915;-70
2022/06/18 09:52:01;;;;;;;;;;;;;;;-140.72;100.00;51684.78;6270994;22;19911;-68
2022/06/18 09:54:29;;;;;;;;;;;;;;;-140.72;100.00;51684.78;6295803;22;19911;-71
2022/06/18 09:56:57;;;;;;;;;;;;;;;-140.72;100.00;51634.06;6299521;22;20401;-69
2022/06/18 09:59:28;;;;;;;;;;;;;;;-140.72;100.00;51672.63;6298569;22;19931;-68
2022/06/18 10:01:55;;;;;;;;;;;;;;;-140.72;100.00;51628.00;6269906;22;19942;-69
2022/06/18 10:07:19;;;;;;;;;;;;;;;-140.72;100.00;51579.28;6296795;22;19918;-68
2022/06/18 10:09:50;;;;;;;;;;;;;;;-140.72;100.00;51571.19;6297776;22;19916;-69
2022/06/18 10:12:15;;;;;;;;;;;;;;;-140.72;100.00;51571.19;6297812;22;19921;-69
2022/06/18 10:14:42;;;;;;;;;;;;;;;-140.72;100.00;51534.66;6270483;22;19911;-69
2022/06/18 10:17:12;;;;;;;;;;;;;;;-140.72;100.00;51530.59;6265067;22;19919;-69
2022/06/18 10:19:44;;;;;;;;;;;;;;;-140.72;100.00;51502.22;6295129;22;19975;-67
2022/06/18 10:22:28;;;;;;;;;;;;;;;-140.72;100.00;51498.16;6267413;22;19931;-69
2022/06/18 10:24:59;;;;;;;;;;;;;;;-140.72;100.00;51502.22;6296615;22;19918;-68
2022/06/18 10:27:31;;;;;;;;;;;;;;;-140.72;100.00;51518.44;6297282;22;20256;-68
2022/06/18 10:29:56;;;;;;;;;;;;;;;-140.72;100.00;51520.47;6298568;22;19911;-71
2022/06/18 10:32:29;;;;;;;;;;;;;;;-140.72;100.00;51492.06;6269375;22;19917;-69
2022/06/18 10:35:05;;;;;;;;;;;;;;;-140.72;100.00;51445.41;6296470;22;19915;-69
2022/06/18 10:37:50;;;;;;;;;;;;;;;-140.72;100.00;51437.28;6267766;22;19919;-69
2022/06/18 10:40:15;;;;;;;;;;;;;;;-140.72;100.00;51408.88;6295220;22;19969;-70
2022/06/18 10:42:40;;;;;;;;;;;;;;;-140.72;100.00;51421.06;6268997;22;19995;-67
2022/06/18 10:45:09;;;;;;;;;;;;;;;-140.72;100.00;51435.25;6269160;22;19912;-68
2022/06/18 10:47:36;;;;;;;;;;;;;;;-140.72;100.00;51433.22;6296757;22;19926;-68
2022/06/18 10:50:04;;;;;;;;;;;;;;;-140.72;100.00;51481.91;6299507;22;19911;-68
2022/06/18 10:52:30;;;;;;;;;;;;;;;-140.72;100.00;51417.00;6268330;22;19911;-68
2022/06/18 10:55:14;;;;;;;;;;;;;;;-140.72;100.00;51398.75;6293928;22;19918;-67
2022/06/18 10:57:39;;;;;;;;;;;;;;;-140.72;100.00;51382.53;6298583;22;19917;-67
2022/06/18 11:00:17;;;;;;;;;;;;;;;-140.72;100.00;51408.88;6296592;22;19915;-68
2022/06/18 11:02:43;;;;;;;;;;;;;;;-140.72;100.00;51360.22;6296520;22;19931;-68
2022/06/18 11:05:28;;;;;;;;;;;;;;;-140.72;100.00;51374.41;6270352;22;19915;-69
2022/06/18 11:07:54;;;;;;;;;;;;;;;-140.72;100.00;51386.56;6296123;22;19911;-68
2022/06/18 11:10:21;;;;;;;;;;;;;;;-140.72;100.00;51386.56;6297385;22;19911;-68
2022/06/18 11:12:52;;;;;;;;;;;;;;;-140.72;100.00;51370.34;6297457;22;19994;-68
2022/06/18 11:15:43;;;;;;;;;;;;;;;-140.72;100.00;51372.38;6296629;22;19911;-70
2022/06/18 11:18:20;;;;;;;;;;;;;;;-140.72;100.00;51364.25;6262702;22;19931;-68
2022/06/18 11:21:01;;;;;;;;;;;;;;;-140.72;100.00;51417.00;6296761;22;19960;-69
2022/06/18 11:23:27;;;;;;;;;;;;;;;-140.72;100.00;51412.94;6297684;22;19911;-68
2022/06/18 11:25:54;;;;;;;;;;;;;;;-140.72;100.00;51417.00;6272527;22;19959;-69
2022/06/18 11:28:25;;;;;;;;;;;;;;;-140.72;100.00;51404.84;6299033;22;19971;-67
2022/06/18 11:30:52;;;;;;;;;;;;;;;-140.72;100.00;51337.88;6297443;22;19915;-68
2022/06/18 11:33:23;;;;;;;;;;;;;;;-140.72;100.00;51348.03;6272350;22;19941;-69
2022/06/18 11:35:50;;;;;;;;;;;;;;;-140.72;100.00;51384.53;6271721;22;19963;-69
2022/06/18 11:38:22;;;;;;;;;;;;;;;-140.72;100.00;51380.50;6271290;22;19991;-68
2022/06/18 11:40:54;;;;;;;;;;;;;;;-140.72;100.00;51485.97;6298782;22;19918;-68
2022/06/18 11:43:32;;;;;;;;;;;;;;;-140.72;100.00;51443.38;6298670;22;19911;-70
2022/06/18 11:46:03;;;;;;;;;;;;;;;-140.72;100.00;51447.44;6297469;22;19911;-68
2022/06/18 11:48:41;;;;;;;;;;;;;;;-140.72;100.00;51408.88;6299021;22;19950;-69
2022/06/18 11:51:17;;;;;;;;;;;;;;;-140.72;100.00;51360.22;6270637;22;19912;-71
2022/06/18 11:53:47;;;;;;;;;;;;;;;-140.72;100.00;51323.69;6273061;22;19911;-71
2022/06/18 11:56:36;;;;;;;;;;;;;;;-140.72;100.00;51323.69;6272358;22;19973;-68
2022/06/18 11:59:19;;;;;;;;;;;;;;;-140.72;100.00;51374.41;6215653;22;19923;-69
2022/06/18 12:01:48;;;;;;;;;;;;;;;-140.72;100.00;51331.81;6270453;22;19912;-69
2022/06/18 12:04:16;;;;;;;;;;;;;;;-140.72;100.00;51352.09;6270243;22;19911;-67
2022/06/18 12:06:48;;;;;;;;;;;;;;;-140.72;100.00;51376.44;6294088;22;19912;-67
2022/06/18 12:09:14;;;;;;;;;;;;;;;-140.72;100.00;51307.47;6266010;22;19918;-69
2022/06/18 12:11:39;;;;;;;;;;;;;;;-140.72;100.00;51313.53;6291557;22;19918;-67
2022/06/18 12:14:16;;;;;;;;;;;;;;;-140.72;100.00;51323.69;6264644;22;19987;-71
2022/06/18 12:17:01;;;;;;;;;;;;;;;-140.72;100.00;51354.13;6265070;22;19919;-68
2022/06/18 12:19:29;;;;;;;;;;;;;;;-140.72;100.00;51313.53;6266037;22;19942;-68
2022/06/18 12:21:57;;;;;;;;;;;;;;;-140.72;100.00;51360.22;6292144;22;19915;-68
2022/06/18 12:24:23;;;;;;;;;;;;;;;-140.72;100.00;51362.22;6264447;22;19912;-67
2022/06/18 12:26:56;;;;;;;;;;;;;;;-140.72;100.00;51376.44;6292026;22;19912;-69
2022/06/18 12:29:40;;;;;;;;;;;;;;;-140.72;100.00;51372.38;6292289;22;19911;-69
2022/06/18 12:32:08;;;;;;;;;;;;;;;-140.72;100.00;51380.50;6290385;22;19939;-69
2022/06/18 12:34:49;;;;;;;;;;;;;;;-140.72;100.00;51348.03;6262647;22;19943;-69
2022/06/18 12:37:26;;;;;;;;;;;;;;;-140.72;100.00;51327.75;6294969;22;19942;-69
2022/06/18 12:40:10;;;;;;;;;;;;;;;-140.72;100.00;51374.41;6299078;22;19933;-68
2022/06/18 12:42:35;;;;;;;;;;;;;;;-140.72;100.00;51386.56;6296437;22;19923;-69
2022/06/18 12:45:09;;;;;;;;;;;;;;;-140.72;100.00;51382.53;6294002;22;19919;-69
2022/06/18 12:47:35;;;;;;;;;;;;;;;-140.72;100.00;51400.78;6293991;22;19915;-68